sensor_id;sensor_type;location;lat;lon;timestamp;pressure;altitude;pressure_sealevel;temperature;humidity
76216;BME280;65010;50.190;18.930;2024-03-08T00:02:12;98929.34;;;2.28;55.17
76216;BME280;65010;50.190;18.930;2024-03-08T00:05:18;98921.69;;;2.27;55.38
76216;BME280;65010;50.190;18.930;2024-03-08T00:08:29;98927.81;;;2.26;55.41
76216;BME280;65010;50.190;18.930;2024-03-08T00:11:35;98922.72;;;2.24;55.48
76216;BME280;65010;50.190;18.930;2024-03-08T00:14:41;98921.91;;;2.24;55.44
76216;BME280;65010;50.190;18.930;2024-03-08T00:17:50;98924.59;;;2.22;55.40
76216;BME280;65010;50.190;18.930;2024-03-08T00:20:56;98922.31;;;2.18;55.30
76216;BME280;65010;50.190;18.930;2024-03-08T00:24:06;98917.22;;;2.16;55.40
76216;BME280;65010;50.190;18.930;2024-03-08T00:27:11;98916.50;;;2.14;55.67
76216;BME280;65010;50.190;18.930;2024-03-08T00:30:19;98911.44;;;2.13;55.60
76216;BME280;65010;50.190;18.930;2024-03-08T00:33:25;98910.72;;;2.10;55.68
76216;BME280;65010;50.190;18.930;2024-03-08T00:36:31;98907.38;;;2.08;55.99
76216;BME280;65010;50.190;18.930;2024-03-08T00:39:39;98907.38;;;2.08;55.91
76216;BME280;65010;50.190;18.930;2024-03-08T00:42:46;98913.53;;;2.07;56.09
76216;BME280;65010;50.190;18.930;2024-03-08T00:45:51;98911.03;;;2.06;56.02
76216;BME280;65010;50.190;18.930;2024-03-08T00:48:57;98904.19;;;2.05;55.87
76216;BME280;65010;50.190;18.930;2024-03-08T00:52:04;98901.69;;;2.03;55.91
76216;BME280;65010;50.190;18.930;2024-03-08T00:55:14;98908.84;;;2.00;55.71
76216;BME280;65010;50.190;18.930;2024-03-08T00:58:19;98902.03;;;1.99;56.00
76216;BME280;65010;50.190;18.930;2024-03-08T01:01:26;98891.03;;;1.95;56.12
76216;BME280;65010;50.190;18.930;2024-03-08T01:04:32;98889.38;;;1.94;56.08
76216;BME280;65010;50.190;18.930;2024-03-08T01:07:38;98891.13;;;1.94;56.12
76216;BME280;65010;50.190;18.930;2024-03-08T01:10:46;98893.81;;;1.92;56.17
76216;BME280;65010;50.190;18.930;2024-03-08T01:13:53;98888.78;;;1.90;56.11
76216;BME280;65010;50.190;18.930;2024-03-08T01:16:59;98883.78;;;1.87;56.10
76216;BME280;65010;50.190;18.930;2024-03-08T01:20:09;98876.09;;;1.86;56.09
76216;BME280;65010;50.190;18.930;2024-03-08T01:23:15;98876.22;;;1.84;55.99
76216;BME280;65010;50.190;18.930;2024-03-08T01:26:23;98873.94;;;1.80;56.34
76216;BME280;65010;50.190;18.930;2024-03-08T01:29:29;98871.44;;;1.78;56.56
76216;BME280;65010;50.190;18.930;2024-03-08T01:32:35;98859.75;;;1.73;56.48
76216;BME280;65010;50.190;18.930;2024-03-08T01:35:41;98856.13;;;1.62;56.48
76216;BME280;65010;50.190;18.930;2024-03-08T01:38:47;98848.25;;;1.51;56.78
76216;BME280;65010;50.190;18.930;2024-03-08T01:41:55;98851.44;;;1.42;56.74
76216;BME280;65010;50.190;18.930;2024-03-08T01:45:02;98852.19;;;1.31;56.95
76216;BME280;65010;50.190;18.930;2024-03-08T01:48:08;98857.78;;;1.25;57.38
76216;BME280;65010;50.190;18.930;2024-03-08T01:51:15;98853.63;;;1.22;57.57
76216;BME280;65010;50.190;18.930;2024-03-08T01:54:20;98847.72;;;1.20;57.48
76216;BME280;65010;50.190;18.930;2024-03-08T01:57:31;98843.38;;;1.21;57.48
76216;BME280;65010;50.190;18.930;2024-03-08T02:00:40;98839.75;;;1.23;57.66
76216;BME280;65010;50.190;18.930;2024-03-08T02:03:47;98843.78;;;1.27;57.89
76216;BME280;65010;50.190;18.930;2024-03-08T02:06:54;98834.16;;;1.29;57.95
76216;BME280;65010;50.190;18.930;2024-03-08T02:10:01;98841.09;;;1.29;57.93
76216;BME280;65010;50.190;18.930;2024-03-08T02:13:09;98837.47;;;1.32;58.01
76216;BME280;65010;50.190;18.930;2024-03-08T02:16:20;98836.75;;;1.29;57.57
76216;BME280;65010;50.190;18.930;2024-03-08T02:19:26;98830.44;;;1.21;57.85
76216;BME280;65010;50.190;18.930;2024-03-08T02:22:36;98824.72;;;1.16;57.72
76216;BME280;65010;50.190;18.930;2024-03-08T02:25:43;98822.13;;;1.16;57.93
76216;BME280;65010;50.190;18.930;2024-03-08T02:28:49;98831.66;;;1.15;57.89
76216;BME280;65010;50.190;18.930;2024-03-08T02:31:55;98832.59;;;1.14;57.75
76216;BME280;65010;50.190;18.930;2024-03-08T02:35:01;98835.28;;;1.13;57.84
76216;BME280;65010;50.190;18.930;2024-03-08T02:38:12;98835.38;;;1.11;57.74
76216;BME280;65010;50.190;18.930;2024-03-08T02:41:19;98832.78;;;1.11;57.60
76216;BME280;65010;50.190;18.930;2024-03-08T02:44:25;98831.88;;;1.12;58.06
76216;BME280;65010;50.190;18.930;2024-03-08T02:47:31;98827.44;;;1.14;58.06
76216;BME280;65010;50.190;18.930;2024-03-08T02:50:38;98828.66;;;1.08;57.89
76216;BME280;65010;50.190;18.930;2024-03-08T02:53:47;98834.97;;;1.04;58.04
76216;BME280;65010;50.190;18.930;2024-03-08T02:56:54;98833.28;;;1.03;57.86
76216;BME280;65010;50.190;18.930;2024-03-08T03:00:00;98827.38;;;1.01;57.82
76216;BME280;65010;50.190;18.930;2024-03-08T03:03:07;98829.47;;;0.96;57.88
76216;BME280;65010;50.190;18.930;2024-03-08T03:06:13;98827.06;;;0.93;58.08
76216;BME280;65010;50.190;18.930;2024-03-08T03:09:22;98828.75;;;0.94;58.16
76216;BME280;65010;50.190;18.930;2024-03-08T03:12:31;98829.56;;;0.95;58.31
76216;BME280;65010;50.190;18.930;2024-03-08T03:15:37;98830.38;;;0.95;58.26
76216;BME280;65010;50.190;18.930;2024-03-08T03:18:44;98825.31;;;0.94;58.29
76216;BME280;65010;50.190;18.930;2024-03-08T03:21:51;98822.53;;;0.97;58.44
76216;BME280;65010;50.190;18.930;2024-03-08T03:24:59;98825.84;;;0.99;58.53
76216;BME280;65010;50.190;18.930;2024-03-08T03:28:06;98827.47;;;1.00;58.59
76216;BME280;65010;50.190;18.930;2024-03-08T03:31:13;98814.53;;;1.00;58.65
76216;BME280;65010;50.190;18.930;2024-03-08T03:34:21;98819.53;;;1.03;58.33
76216;BME280;65010;50.190;18.930;2024-03-08T03:37:27;98820.16;;;1.06;58.29
76216;BME280;65010;50.190;18.930;2024-03-08T03:40:36;98822.66;;;1.08;58.21
76216;BME280;65010;50.190;18.930;2024-03-08T03:43:43;98819.22;;;1.07;58.37
76216;BME280;65010;50.190;18.930;2024-03-08T03:46:50;98818.50;;;1.05;58.11
76216;BME280;65010;50.190;18.930;2024-03-08T03:49:56;98823.56;;;1.07;58.41
76216;BME280;65010;50.190;18.930;2024-03-08T03:53:05;98816.00;;;1.04;58.15
76216;BME280;65010;50.190;18.930;2024-03-08T03:56:15;98817.97;;;1.00;58.11
76216;BME280;65010;50.190;18.930;2024-03-08T03:59:21;98819.72;;;1.00;58.13
76216;BME280;65010;50.190;18.930;2024-03-08T04:02:27;98818.91;;;0.99;58.05
76216;BME280;65010;50.190;18.930;2024-03-08T04:05:33;98819.00;;;0.98;58.11
76216;BME280;65010;50.190;18.930;2024-03-08T04:08:38;98809.69;;;0.95;58.10
76216;BME280;65010;50.190;18.930;2024-03-08T04:11:48;98815.81;;;0.94;58.18
76216;BME280;65010;50.190;18.930;2024-03-08T04:14:55;98813.31;;;0.93;58.28
76216;BME280;65010;50.190;18.930;2024-03-08T04:18:02;98817.13;;;0.87;58.46
76216;BME280;65010;50.190;18.930;2024-03-08T04:21:08;98814.84;;;0.82;59.05
76216;BME280;65010;50.190;18.930;2024-03-08T04:24:14;98811.63;;;0.79;58.96
76216;BME280;65010;50.190;18.930;2024-03-08T04:27:22;98806.13;;;0.70;58.78
76216;BME280;65010;50.190;18.930;2024-03-08T04:30:28;98810.34;;;0.72;59.02
76216;BME280;65010;50.190;18.930;2024-03-08T04:33:34;98806.03;;;0.72;58.90
76216;BME280;65010;50.190;18.930;2024-03-08T04:36:40;98809.44;;;0.73;58.92
76216;BME280;65010;50.190;18.930;2024-03-08T04:39:46;98815.25;;;0.76;58.96
76216;BME280;65010;50.190;18.930;2024-03-08T04:42:55;98810.19;;;0.87;59.06
76216;BME280;65010;50.190;18.930;2024-03-08T04:46:00;98813.31;;;0.93;58.89
76216;BME280;65010;50.190;18.930;2024-03-08T04:49:08;98814.66;;;0.98;59.07
76216;BME280;65010;50.190;18.930;2024-03-08T04:52:14;98809.38;;;1.00;58.75
76216;BME280;65010;50.190;18.930;2024-03-08T04:55:20;98813.63;;;1.01;58.85
76216;BME280;65010;50.190;18.930;2024-03-08T04:58:28;98806.69;;;1.01;58.58
76216;BME280;65010;50.190;18.930;2024-03-08T05:01:34;98810.81;;;1.04;58.69
76216;BME280;65010;50.190;18.930;2024-03-08T05:04:40;98808.88;;;1.07;58.64
76216;BME280;65010;50.190;18.930;2024-03-08T05:07:46;98819.03;;;1.10;58.77
76216;BME280;65010;50.190;18.930;2024-03-08T05:10:52;98816.84;;;1.17;58.50
76216;BME280;65010;50.190;18.930;2024-03-08T05:14:00;98816.53;;;1.22;58.52
76216;BME280;65010;50.190;18.930;2024-03-08T05:17:07;98815.41;;;1.26;58.54
76216;BME280;65010;50.190;18.930;2024-03-08T05:20:13;98813.25;;;1.33;58.53
76216;BME280;65010;50.190;18.930;2024-03-08T05:23:19;98812.09;;;1.37;58.31
76216;BME280;65010;50.190;18.930;2024-03-08T05:26:25;98811.88;;;1.40;58.37
76216;BME280;65010;50.190;18.930;2024-03-08T05:29:35;98821.81;;;1.46;58.41
76216;BME280;65010;50.190;18.930;2024-03-08T05:32:41;98821.53;;;1.50;58.57
76216;BME280;65010;50.190;18.930;2024-03-08T05:35:48;98823.06;;;1.53;58.39
76216;BME280;65010;50.190;18.930;2024-03-08T05:38:55;98831.25;;;1.60;58.57
76216;BME280;65010;50.190;18.930;2024-03-08T05:42:00;98826.38;;;1.68;58.56
76216;BME280;65010;50.190;18.930;2024-03-08T05:45:10;98832.16;;;1.72;58.50
76216;BME280;65010;50.190;18.930;2024-03-08T05:48:16;98827.72;;;1.74;58.14
76216;BME280;65010;50.190;18.930;2024-03-08T05:51:24;98832.69;;;1.77;58.49
76216;BME280;65010;50.190;18.930;2024-03-08T05:54:29;98832.47;;;1.80;58.36
76216;BME280;65010;50.190;18.930;2024-03-08T05:57:36;98833.28;;;1.80;58.06
76216;BME280;65010;50.190;18.930;2024-03-08T06:00:45;98835.28;;;1.77;57.93
76216;BME280;65010;50.190;18.930;2024-03-08T06:03:56;98828.94;;;1.68;57.92
76216;BME280;65010;50.190;18.930;2024-03-08T06:07:02;98832.69;;;1.64;58.01
76216;BME280;65010;50.190;18.930;2024-03-08T06:10:09;98830.00;;;1.65;58.22
76216;BME280;65010;50.190;18.930;2024-03-08T06:13:15;98829.81;;;1.68;58.35
76216;BME280;65010;50.190;18.930;2024-03-08T06:16:24;98831.13;;;1.74;58.20
76216;BME280;65010;50.190;18.930;2024-03-08T06:19:31;98840.25;;;1.80;58.95
76216;BME280;65010;50.190;18.930;2024-03-08T06:22:39;98831.66;;;1.79;58.32
76216;BME280;65010;50.190;18.930;2024-03-08T06:25:44;98828.81;;;1.82;58.18
76216;BME280;65010;50.190;18.930;2024-03-08T06:28:51;98831.56;;;1.81;57.75
76216;BME280;65010;50.190;18.930;2024-03-08T06:31:59;98837.75;;;1.78;57.61
76216;BME280;65010;50.190;18.930;2024-03-08T06:35:06;98829.88;;;1.80;57.75
76216;BME280;65010;50.190;18.930;2024-03-08T06:38:12;98832.03;;;1.86;58.06
76216;BME280;65010;50.190;18.930;2024-03-08T06:41:20;98831.75;;;1.90;57.73
76216;BME280;65010;50.190;18.930;2024-03-08T06:44:25;98824.25;;;1.99;58.14
76216;BME280;65010;50.190;18.930;2024-03-08T06:47:34;98824.53;;;2.07;57.83
76216;BME280;65010;50.190;18.930;2024-03-08T06:50:39;98819.97;;;2.10;57.57
76216;BME280;65010;50.190;18.930;2024-03-08T06:53:46;98819.03;;;2.12;57.37
76216;BME280;65010;50.190;18.930;2024-03-08T06:56:51;98831.06;;;2.13;57.28
76216;BME280;65010;50.190;18.930;2024-03-08T06:59:57;98828.53;;;2.24;57.49
76216;BME280;65010;50.190;18.930;2024-03-08T07:03:08;98825.00;;;2.25;56.92
76216;BME280;65010;50.190;18.930;2024-03-08T07:06:15;98826.22;;;2.32;57.36
76216;BME280;65010;50.190;18.930;2024-03-08T07:09:21;98826.50;;;2.40;56.87
76216;BME280;65010;50.190;18.930;2024-03-08T07:12:27;98821.72;;;2.47;56.68
76216;BME280;65010;50.190;18.930;2024-03-08T07:15:33;98823.00;;;2.53;56.62
76216;BME280;65010;50.190;18.930;2024-03-08T07:18:42;98824.75;;;2.65;56.43
76216;BME280;65010;50.190;18.930;2024-03-08T07:21:48;98822.72;;;2.68;56.10
76216;BME280;65010;50.190;18.930;2024-03-08T07:24:55;98823.22;;;2.74;55.91
76216;BME280;65010;50.190;18.930;2024-03-08T07:28:19;98830.50;;;2.68;55.51
76216;BME280;65010;50.190;18.930;2024-03-08T07:31:26;98829.59;;;2.69;55.54
76216;BME280;65010;50.190;18.930;2024-03-08T07:34:50;98826.44;;;2.77;55.60
76216;BME280;65010;50.190;18.930;2024-03-08T07:37:56;98824.09;;;2.85;55.37
76216;BME280;65010;50.190;18.930;2024-03-08T07:41:02;98818.22;;;2.95;55.22
76216;BME280;65010;50.190;18.930;2024-03-08T07:44:08;98825.69;;;2.99;55.51
76216;BME280;65010;50.190;18.930;2024-03-08T07:47:16;98826.06;;;3.06;54.97
76216;BME280;65010;50.190;18.930;2024-03-08T07:50:29;98819.56;;;3.12;54.99
76216;BME280;65010;50.190;18.930;2024-03-08T07:53:35;98825.84;;;3.20;54.99
76216;BME280;65010;50.190;18.930;2024-03-08T07:56:42;98825.72;;;3.33;54.92
76216;BME280;65010;50.190;18.930;2024-03-08T07:59:47;98819.84;;;3.42;54.02
76216;BME280;65010;50.190;18.930;2024-03-08T08:02:53;98833.66;;;3.43;54.01
76216;BME280;65010;50.190;18.930;2024-03-08T08:06:02;98823.06;;;3.46;54.01
76216;BME280;65010;50.190;18.930;2024-03-08T08:09:08;98826.25;;;3.49;53.66
76216;BME280;65010;50.190;18.930;2024-03-08T08:12:16;98830.03;;;3.57;53.64
76216;BME280;65010;50.190;18.930;2024-03-08T08:15:22;98827.91;;;3.62;53.42
76216;BME280;65010;50.190;18.930;2024-03-08T08:18:28;98830.97;;;3.67;53.51
76216;BME280;65010;50.190;18.930;2024-03-08T08:21:38;98837.97;;;3.78;53.16
76216;BME280;65010;50.190;18.930;2024-03-08T08:24:44;98829.56;;;3.85;53.08
76216;BME280;65010;50.190;18.930;2024-03-08T08:27:50;98835.25;;;4.02;52.96
76216;BME280;65010;50.190;18.930;2024-03-08T08:30:56;98833.00;;;4.08;51.93
76216;BME280;65010;50.190;18.930;2024-03-08T08:34:02;98835.34;;;4.23;52.50
76216;BME280;65010;50.190;18.930;2024-03-08T08:37:14;98839.34;;;4.38;52.06
76216;BME280;65010;50.190;18.930;2024-03-08T08:40:22;98830.88;;;4.46;51.40
76216;BME280;65010;50.190;18.930;2024-03-08T08:43:30;98838.47;;;4.49;51.62
76216;BME280;65010;50.190;18.930;2024-03-08T08:46:37;98838.09;;;4.54;51.49
76216;BME280;65010;50.190;18.930;2024-03-08T08:49:43;98844.97;;;4.55;51.34
76216;BME280;65010;50.190;18.930;2024-03-08T08:52:52;98834.56;;;4.55;51.06
76216;BME280;65010;50.190;18.930;2024-03-08T08:55:58;98841.03;;;4.60;50.90
76216;BME280;65010;50.190;18.930;2024-03-08T08:59:05;98836.38;;;4.75;50.81
76216;BME280;65010;50.190;18.930;2024-03-08T09:02:10;98838.22;;;4.84;50.35
76216;BME280;65010;50.190;18.930;2024-03-08T09:05:20;98832.25;;;4.94;50.23
76216;BME280;65010;50.190;18.930;2024-03-08T09:08:29;98830.00;;;5.00;50.03
76216;BME280;65010;50.190;18.930;2024-03-08T09:11:37;98827.69;;;5.07;49.64
76216;BME280;65010;50.190;18.930;2024-03-08T09:14:44;98820.13;;;5.04;49.70
76216;BME280;65010;50.190;18.930;2024-03-08T09:17:51;98826.22;;;5.14;49.64
76216;BME280;65010;50.190;18.930;2024-03-08T09:20:59;98817.53;;;5.25;49.79
76216;BME280;65010;50.190;18.930;2024-03-08T09:24:08;98817.84;;;5.32;49.88
76216;BME280;65010;50.190;18.930;2024-03-08T09:27:15;98815.00;;;5.44;49.64
76216;BME280;65010;50.190;18.930;2024-03-08T09:30:21;98809.16;;;5.52;49.51
76216;BME280;65010;50.190;18.930;2024-03-08T09:33:28;98807.97;;;5.66;49.22
76216;BME280;65010;50.190;18.930;2024-03-08T09:36:36;98807.47;;;5.72;48.31
76216;BME280;65010;50.190;18.930;2024-03-08T09:39:47;98808.84;;;5.76;49.07
76216;BME280;65010;50.190;18.930;2024-03-08T09:42:52;98809.03;;;5.94;49.30
76216;BME280;65010;50.190;18.930;2024-03-08T09:45:58;98807.97;;;6.06;48.39
76216;BME280;65010;50.190;18.930;2024-03-08T09:49:04;98806.75;;;6.10;47.57
76216;BME280;65010;50.190;18.930;2024-03-08T09:52:11;98802.38;;;6.11;47.54
76216;BME280;65010;50.190;18.930;2024-03-08T09:55:21;98806.63;;;6.12;47.39
76216;BME280;65010;50.190;18.930;2024-03-08T09:58:28;98799.06;;;6.19;47.58
76216;BME280;65010;50.190;18.930;2024-03-08T10:02:02;98804.44;;;6.27;47.21
76216;BME280;65010;50.190;18.930;2024-03-08T10:05:09;98808.59;;;6.29;47.00
76216;BME280;65010;50.190;18.930;2024-03-08T10:08:14;98804.50;;;6.37;46.69
76216;BME280;65010;50.190;18.930;2024-03-08T10:11:24;98802.88;;;6.45;46.57
76216;BME280;65010;50.190;18.930;2024-03-08T10:14:30;98800.94;;;6.67;46.82
76216;BME280;65010;50.190;18.930;2024-03-08T10:17:36;98806.72;;;6.80;46.08
76216;BME280;65010;50.190;18.930;2024-03-08T10:20:42;98802.44;;;6.99;46.08
76216;BME280;65010;50.190;18.930;2024-03-08T10:23:49;98812.75;;;7.10;45.74
76216;BME280;65010;50.190;18.930;2024-03-08T10:27:02;98803.22;;;7.28;45.55
76216;BME280;65010;50.190;18.930;2024-03-08T10:30:13;98803.06;;;7.40;45.30
76216;BME280;65010;50.190;18.930;2024-03-08T10:33:22;98804.13;;;7.47;44.60
76216;BME280;65010;50.190;18.930;2024-03-08T10:36:29;98805.34;;;7.53;44.28
76216;BME280;65010;50.190;18.930;2024-03-08T10:39:37;98790.88;;;7.58;43.96
76216;BME280;65010;50.190;18.930;2024-03-08T10:42:52;98784.63;;;7.69;44.06
76216;BME280;65010;50.190;18.930;2024-03-08T10:46:10;98784.16;;;7.83;43.88
76216;BME280;65010;50.190;18.930;2024-03-08T10:49:31;98785.53;;;8.05;43.66
76216;BME280;65010;50.190;18.930;2024-03-08T10:52:38;98787.28;;;8.24;42.90
76216;BME280;65010;50.190;18.930;2024-03-08T10:55:46;98783.00;;;8.41;42.88
76216;BME280;65010;50.190;18.930;2024-03-08T10:58:59;98782.34;;;8.57;42.60
76216;BME280;65010;50.190;18.930;2024-03-08T11:02:08;98779.53;;;8.95;42.59
76216;BME280;65010;50.190;18.930;2024-03-08T11:05:31;98775.84;;;9.66;41.77
76216;BME280;65010;50.190;18.930;2024-03-08T11:08:46;98772.34;;;10.51;41.05
76216;BME280;65010;50.190;18.930;2024-03-08T11:12:19;98764.69;;;11.54;39.50
76216;BME280;65010;50.190;18.930;2024-03-08T11:15:31;98763.97;;;12.62;37.56
76216;BME280;65010;50.190;18.930;2024-03-08T11:18:37;98753.22;;;13.70;35.91
76216;BME280;65010;50.190;18.930;2024-03-08T11:21:44;98750.06;;;14.54;34.43
76216;BME280;65010;50.190;18.930;2024-03-08T11:24:50;98746.38;;;15.26;33.97
76216;BME280;65010;50.190;18.930;2024-03-08T11:28:07;98745.72;;;15.94;31.67
76216;BME280;65010;50.190;18.930;2024-03-08T11:31:25;98744.19;;;16.19;29.14
76216;BME280;65010;50.190;18.930;2024-03-08T11:34:32;98736.47;;;16.44;28.44
76216;BME280;65010;50.190;18.930;2024-03-08T11:37:38;98742.03;;;16.90;28.84
76216;BME280;65010;50.190;18.930;2024-03-08T11:40:46;98730.72;;;17.41;28.00
76216;BME280;65010;50.190;18.930;2024-03-08T11:44:03;98725.91;;;17.83;26.32
76216;BME280;65010;50.190;18.930;2024-03-08T11:47:15;98728.84;;;18.07;25.96
76216;BME280;65010;50.190;18.930;2024-03-08T11:50:21;98720.63;;;18.47;26.30
76216;BME280;65010;50.190;18.930;2024-03-08T11:53:27;98715.34;;;18.97;25.10
76216;BME280;65010;50.190;18.930;2024-03-08T11:56:34;98712.13;;;19.50;24.25
76216;BME280;65010;50.190;18.930;2024-03-08T11:59:40;98712.66;;;19.89;24.38
76216;BME280;65010;50.190;18.930;2024-03-08T12:03:01;98712.16;;;20.29;23.69
76216;BME280;65010;50.190;18.930;2024-03-08T12:06:08;98708.06;;;20.69;23.98
76216;BME280;65010;50.190;18.930;2024-03-08T12:09:16;98711.31;;;21.18;23.31
76216;BME280;65010;50.190;18.930;2024-03-08T12:12:24;98699.19;;;21.51;21.32
76216;BME280;65010;50.190;18.930;2024-03-08T12:15:31;98699.31;;;21.44;21.71
76216;BME280;65010;50.190;18.930;2024-03-08T12:18:42;98694.59;;;21.34;21.15
76216;BME280;65010;50.190;18.930;2024-03-08T12:21:48;98687.59;;;21.33;21.82
76216;BME280;65010;50.190;18.930;2024-03-08T12:25:03;98684.88;;;21.57;21.28
76216;BME280;65010;50.190;18.930;2024-03-08T12:28:13;98683.59;;;21.71;21.07
76216;BME280;65010;50.190;18.930;2024-03-08T12:31:21;98686.03;;;21.61;20.33
76216;BME280;65010;50.190;18.930;2024-03-08T12:34:30;98678.69;;;21.16;20.45
76216;BME280;65010;50.190;18.930;2024-03-08T12:37:38;98680.81;;;21.54;22.50
76216;BME280;65010;50.190;18.930;2024-03-08T12:40:43;98668.13;;;22.19;22.12
76216;BME280;65010;50.190;18.930;2024-03-08T12:43:49;98672.31;;;22.77;20.77
76216;BME280;65010;50.190;18.930;2024-03-08T12:46:55;98667.19;;;23.15;19.77
76216;BME280;65010;50.190;18.930;2024-03-08T12:50:05;98664.47;;;23.32;19.66
76216;BME280;65010;50.190;18.930;2024-03-08T12:53:11;98653.22;;;23.57;19.89
76216;BME280;65010;50.190;18.930;2024-03-08T12:56:28;98656.09;;;23.72;18.43
76216;BME280;65010;50.190;18.930;2024-03-08T12:59:36;98653.91;;;23.47;18.43
76216;BME280;65010;50.190;18.930;2024-03-08T13:02:42;98656.47;;;23.37;19.08
76216;BME280;65010;50.190;18.930;2024-03-08T13:05:50;98647.16;;;23.00;19.55
76216;BME280;65010;50.190;18.930;2024-03-08T13:09:00;98637.22;;;23.01;19.88
76216;BME280;65010;50.190;18.930;2024-03-08T13:12:09;98624.53;;;23.35;20.03
76216;BME280;65010;50.190;18.930;2024-03-08T13:15:16;98634.63;;;23.72;19.49
76216;BME280;65010;50.190;18.930;2024-03-08T13:18:23;98629.63;;;24.08;19.53
76216;BME280;65010;50.190;18.930;2024-03-08T13:21:33;98631.84;;;24.16;18.24
76216;BME280;65010;50.190;18.930;2024-03-08T13:24:39;98626.34;;;23.79;18.53
76216;BME280;65010;50.190;18.930;2024-03-08T13:27:48;98630.94;;;23.78;18.88
76216;BME280;65010;50.190;18.930;2024-03-08T13:30:56;98619.44;;;23.56;18.97
76216;BME280;65010;50.190;18.930;2024-03-08T13:34:06;98611.63;;;23.10;18.45
76216;BME280;65010;50.190;18.930;2024-03-08T13:37:16;98621.38;;;22.10;19.23
76216;BME280;65010;50.190;18.930;2024-03-08T13:40:25;98619.81;;;21.39;20.03
76216;BME280;65010;50.190;18.930;2024-03-08T13:43:33;98617.47;;;21.14;20.49
76216;BME280;65010;50.190;18.930;2024-03-08T13:46:40;98615.50;;;20.98;20.82
76216;BME280;65010;50.190;18.930;2024-03-08T13:49:45;98607.72;;;20.96;21.10
76216;BME280;65010;50.190;18.930;2024-03-08T13:52:56;98609.91;;;20.88;20.44
76216;BME280;65010;50.190;18.930;2024-03-08T13:56:02;98611.56;;;20.65;21.27
76216;BME280;65010;50.190;18.930;2024-03-08T13:59:09;98605.06;;;20.73;20.79
76216;BME280;65010;50.190;18.930;2024-03-08T14:02:15;98611.09;;;20.33;21.02
76216;BME280;65010;50.190;18.930;2024-03-08T14:05:21;98603.69;;;20.04;21.53
76216;BME280;65010;50.190;18.930;2024-03-08T14:08:29;98604.91;;;19.78;22.27
76216;BME280;65010;50.190;18.930;2024-03-08T14:11:36;98609.88;;;19.75;22.55
76216;BME280;65010;50.190;18.930;2024-03-08T14:14:41;98609.34;;;19.84;22.92
76216;BME280;65010;50.190;18.930;2024-03-08T14:17:52;98604.22;;;19.83;22.36
76216;BME280;65010;50.190;18.930;2024-03-08T14:20:58;98605.56;;;20.04;22.78
76216;BME280;65010;50.190;18.930;2024-03-08T14:24:07;98615.94;;;19.82;22.28
76216;BME280;65010;50.190;18.930;2024-03-08T14:27:13;98601.81;;;19.14;22.50
76216;BME280;65010;50.190;18.930;2024-03-08T14:30:21;98598.19;;;18.72;23.45
76216;BME280;65010;50.190;18.930;2024-03-08T14:33:37;98588.84;;;18.37;23.66
76216;BME280;65010;50.190;18.930;2024-03-08T14:36:46;98592.44;;;17.68;24.42
76216;BME280;65010;50.190;18.930;2024-03-08T14:39:53;98588.94;;;17.29;25.34
76216;BME280;65010;50.190;18.930;2024-03-08T14:43:00;98591.09;;;16.93;25.58
76216;BME280;65010;50.190;18.930;2024-03-08T14:46:08;98586.47;;;16.49;26.30
76216;BME280;65010;50.190;18.930;2024-03-08T14:49:17;98591.78;;;16.22;26.54
76216;BME280;65010;50.190;18.930;2024-03-08T14:52:23;98586.00;;;15.72;27.26
76216;BME280;65010;50.190;18.930;2024-03-08T14:55:38;98595.72;;;15.44;27.56
76216;BME280;65010;50.190;18.930;2024-03-08T14:58:44;98593.50;;;15.00;27.82
76216;BME280;65010;50.190;18.930;2024-03-08T15:01:52;98585.59;;;14.43;28.73
76216;BME280;65010;50.190;18.930;2024-03-08T15:04:58;98584.28;;;14.04;29.44
76216;BME280;65010;50.190;18.930;2024-03-08T15:08:06;98589.47;;;13.70;29.98
76216;BME280;65010;50.190;18.930;2024-03-08T15:11:25;98580.66;;;13.47;30.45
76216;BME280;65010;50.190;18.930;2024-03-08T15:14:32;98585.22;;;13.39;30.68
76216;BME280;65010;50.190;18.930;2024-03-08T15:17:37;98578.31;;;13.38;31.03
76216;BME280;65010;50.190;18.930;2024-03-08T15:20:44;98578.69;;;13.35;31.25
76216;BME280;65010;50.190;18.930;2024-03-08T15:23:50;98573.06;;;13.23;31.50
76216;BME280;65010;50.190;18.930;2024-03-08T15:27:00;98578.28;;;13.16;31.47
76216;BME280;65010;50.190;18.930;2024-03-08T15:30:07;98571.66;;;13.05;31.58
76216;BME280;65010;50.190;18.930;2024-03-08T15:33:16;98574.88;;;12.71;31.86
76216;BME280;65010;50.190;18.930;2024-03-08T15:36:26;98567.56;;;12.58;32.23
76216;BME280;65010;50.190;18.930;2024-03-08T15:39:34;98561.47;;;12.58;32.43
76216;BME280;65010;50.190;18.930;2024-03-08T15:42:43;98568.34;;;12.44;32.73
76216;BME280;65010;50.190;18.930;2024-03-08T15:45:49;98566.44;;;12.38;32.94
76216;BME280;65010;50.190;18.930;2024-03-08T15:48:55;98568.09;;;12.39;32.98
76216;BME280;65010;50.190;18.930;2024-03-08T15:52:01;98567.88;;;12.25;33.36
76216;BME280;65010;50.190;18.930;2024-03-08T15:55:07;98566.66;;;12.13;33.52
76216;BME280;65010;50.190;18.930;2024-03-08T15:58:16;98566.28;;;12.01;33.66
76216;BME280;65010;50.190;18.930;2024-03-08T16:01:22;98565.75;;;11.83;34.20
76216;BME280;65010;50.190;18.930;2024-03-08T16:04:29;98562.66;;;11.79;34.28
76216;BME280;65010;50.190;18.930;2024-03-08T16:07:37;98568.69;;;11.65;34.67
76216;BME280;65010;50.190;18.930;2024-03-08T16:10:44;98564.03;;;11.44;35.01
76216;BME280;65010;50.190;18.930;2024-03-08T16:13:54;98567.94;;;11.17;35.34
76216;BME280;65010;50.190;18.930;2024-03-08T16:17:01;98557.88;;;10.89;35.61
76216;BME280;65010;50.190;18.930;2024-03-08T16:20:07;98562.09;;;10.59;35.99
76216;BME280;65010;50.190;18.930;2024-03-08T16:23:18;98561.00;;;10.28;36.37
76216;BME280;65010;50.190;18.930;2024-03-08T16:26:23;98564.97;;;10.00;36.76
76216;BME280;65010;50.190;18.930;2024-03-08T16:29:33;98560.97;;;9.71;37.29
76216;BME280;65010;50.190;18.930;2024-03-08T16:32:41;98562.44;;;9.49;37.78